Time;durP1;ratioP1;P1;durP2;ratioP2;P2;SDS_P1;SDS_P2;PMS_P1;PMS_P2;Temp;Humidity;BMP_temperature;BMP_pressure;BME280_temperature;BME280_humidity;BME280_pressure;Samples;Min_cycle;Max_cycle;Signal;HPM_P1;HPM_P2
2021/12/16 00:09:16;;;;;;;;;;;9.40;99.90;;;7.83;100.00;102324.66;4973860;28;20072;-78
2021/12/16 00:33:44;;;;;;;;;;;8.00;99.90;;;7.78;100.00;102345.53;4972795;28;20625;-79
2021/12/16 00:36:12;;;;;;;;;;;8.90;99.90;;;7.77;100.00;102343.75;4977056;28;19929;-78
2021/12/16 00:38:43;;;;;;;;;;;8.30;99.90;;;7.79;100.00;102342.91;4977133;28;20467;-78
2021/12/16 00:41:11;;;;;;;;;;;8.60;99.90;;;7.78;100.00;102346.41;4976723;28;20024;-77
2021/12/16 00:43:49;;;;;;;;;;;7.60;99.90;;;7.80;100.00;102343.81;4959218;28;19950;-77
2021/12/16 00:49:30;;;;;;;;;;;7.70;99.90;;;7.83;100.00;102354.34;4940520;28;19994;-78
2021/12/16 00:54:51;;;;;;;;;;;7.70;99.90;;;7.71;100.00;102343.63;4977262;28;19940;-78
2021/12/16 00:57:18;;;;;;;;;;;7.90;99.90;;;7.75;100.00;102354.19;4973893;28;20013;-77
2021/12/16 00:59:48;;;;;;;;;;;7.60;99.90;;;7.77;100.00;102365.59;4941742;29;19933;-78
2021/12/16 01:57:22;;;;;;;;;;;7.50;99.90;;;7.35;100.00;102383.09;4989588;28;19936;-76
2021/12/16 02:00:04;;;;;;;;;;;8.50;99.90;;;7.31;100.00;102380.34;4975458;28;19926;-79
2021/12/16 02:02:46;;;;;;;;;;;7.50;99.90;;;7.27;100.00;102375.91;4988141;28;19933;-76
2021/12/16 02:10:25;;;;;;;;;;;7.50;99.90;;;7.27;100.00;102374.19;4970479;28;19926;-76
2021/12/16 02:32:32;;;;;;;;;;;7.50;99.90;;;7.15;100.00;102368.69;4949333;28;19930;-78
2021/12/16 02:37:35;;;;;;;;;;;8.40;99.90;;;7.20;100.00;102361.78;4969498;28;19930;-77
2021/12/16 02:40:07;;;;;;;;;;;7.40;99.90;;;7.24;100.00;102368.84;4939138;29;19974;-77
2021/12/16 02:42:51;;;;;;;;;;;7.50;99.90;;;7.26;100.00;102366.28;4937836;29;19931;-78
2021/12/16 02:50:52;;;;;;;;;;;7.50;99.90;;;7.16;100.00;102373.94;4970444;28;19930;-77
2021/12/16 02:53:19;;;;;;;;;;;7.70;99.90;;;7.15;100.00;102368.69;4974276;28;19939;-77
2021/12/16 02:55:46;;;;;;;;;;;8.70;99.90;;;7.12;100.00;102372.09;4970310;28;20376;-77
2021/12/16 02:58:15;;;;;;;;;;;7.90;99.90;;;7.15;100.00;102364.31;4969647;28;19938;-77
2021/12/16 03:00:45;;;;;;;;;;;8.40;99.90;;;7.17;100.00;102367.84;4953450;29;19938;-78
2021/12/16 03:03:30;;;;;;;;;;;7.40;99.90;;;7.17;100.00;102361.72;4967687;28;20671;-77
2021/12/16 03:06:02;;;;;;;;;;;7.50;99.90;;;7.16;100.00;102362.59;4952397;29;20307;-77
2021/12/16 03:08:31;;;;;;;;;;;8.50;99.90;;;7.15;100.00;102358.19;4953210;28;19931;-77
2021/12/16 03:11:16;;;;;;;;;;;8.60;99.90;;;7.18;100.00;102353.94;4937992;29;19930;-78
2021/12/16 03:14:02;;;;;;;;;;;7.40;99.90;;;7.16;100.00;102355.59;4953304;28;20301;-77
2021/12/16 03:16:50;;;;;;;;;;;8.40;99.90;;;7.18;100.00;102353.94;4970997;28;19971;-76
2021/12/16 03:19:25;;;;;;;;;;;7.40;99.90;;;7.15;100.00;102353.84;4954714;28;19937;-76
2021/12/16 03:21:56;;;;;;;;;;;7.50;99.90;;;7.18;100.00;102355.66;4955775;29;19933;-78
2021/12/16 03:33:48;;;;;;;;;;;7.50;99.90;;;7.20;100.00;102360.06;4956912;28;19997;-76
2021/12/16 03:36:27;;;;;;;;;;;8.00;99.90;;;7.20;100.00;102360.06;4938731;29;19936;-77
2021/12/16 03:39:01;;;;;;;;;;;7.40;99.90;;;7.18;100.00;102360.88;4954931;28;19965;-78
2021/12/16 03:41:30;;;;;;;;;;;7.70;99.90;;;7.16;100.00;102359.97;4953423;29;19931;-76
2021/12/16 03:44:00;;;;;;;;;;;7.50;99.90;;;7.12;100.00;102351.16;4948642;29;19985;-76
2021/12/16 03:46:34;;;;;;;;;;;7.40;99.90;;;7.12;100.00;102351.16;4918352;29;19976;-76
2021/12/16 03:49:06;;;;;;;;;;;7.90;99.90;;;7.14;100.00;102356.44;4932843;29;19927;-75
2021/12/16 03:51:46;;;;;;;;;;;8.90;99.90;;;7.14;100.00;102361.66;4948887;29;19931;-76
2021/12/16 03:54:32;;;;;;;;;;;7.40;99.90;;;7.15;100.00;102364.31;4964638;28;20315;-76
2021/12/16 03:57:05;;;;;;;;;;;7.40;99.90;;;7.14;100.00;102359.91;4949910;29;19958;-76
2021/12/16 03:59:35;;;;;;;;;;;7.40;99.90;;;7.17;100.00;102359.97;4961024;28;19985;-76
2021/12/16 04:02:21;;;;;;;;;;;7.80;99.90;;;7.15;100.00;102366.91;4970391;28;19926;-76
2021/12/16 04:04:51;;;;;;;;;;;7.40;99.90;;;7.15;100.00;102372.16;4953823;28;19930;-76
2021/12/16 04:07:22;;;;;;;;;;;8.20;99.90;;;7.15;100.00;102363.44;4953026;28;19930;-76
2021/12/16 04:10:39;;;;;;;;;;;7.40;99.90;;;7.17;100.00;102370.44;4968091;28;19930;-75
2021/12/16 04:13:15;;;;;;;;;;;7.70;99.90;;;7.18;100.00;102368.75;4970497;28;19929;-77
2021/12/16 04:15:46;;;;;;;;;;;8.60;99.90;;;7.15;100.00;102368.69;4968934;28;19930;-77
2021/12/16 04:18:14;;;;;;;;;;;8.00;99.90;;;7.15;100.00;102376.53;4953304;28;20387;-76
2021/12/16 04:20:41;;;;;;;;;;;7.40;99.90;;;7.15;100.00;102373.91;4952673;28;19936;-76
2021/12/16 04:23:10;;;;;;;;;;;7.40;99.90;;;7.12;100.00;102372.09;4967948;28;19969;-76
2021/12/16 04:25:40;;;;;;;;;;;7.30;99.90;;;7.13;100.00;102378.22;4968896;28;19926;-76
2021/12/16 04:28:14;;;;;;;;;;;7.80;99.90;;;7.16;100.00;102373.94;4984927;28;19973;-77
2021/12/16 04:30:47;;;;;;;;;;;7.40;99.90;;;7.17;100.00;102385.28;4968895;28;19930;-77
2021/12/16 04:33:19;;;;;;;;;;;7.40;99.90;;;7.16;100.00;102380.91;4951391;28;20398;-77
2021/12/16 04:35:46;;;;;;;;;;;7.40;99.90;;;7.16;100.00;102375.69;4985186;28;20025;-77
2021/12/16 04:38:17;;;;;;;;;;;7.70;99.90;;;7.13;100.00;102378.22;4985128;28;19977;-76
2021/12/16 04:40:49;;;;;;;;;;;7.40;99.90;;;7.15;100.00;102387.00;4968390;28;19937;-76
2021/12/16 04:43:21;;;;;;;;;;;7.40;99.90;;;7.11;100.00;102388.66;4966777;28;19926;-75
2021/12/16 04:45:59;;;;;;;;;;;7.40;99.90;;;7.10;100.00;102386.88;4983354;28;20451;-75
2021/12/16 04:48:27;;;;;;;;;;;8.10;99.90;;;7.10;100.00;102399.97;4968680;28;19930;-76
2021/12/16 04:50:55;;;;;;;;;;;7.40;99.90;;;7.06;100.00;102393.78;4984159;28;19955;-76
2021/12/16 04:53:22;;;;;;;;;;;7.40;99.90;;;7.03;100.00;102393.72;4984742;28;19937;-75
2021/12/16 04:55:53;;;;;;;;;;;7.40;99.90;;;7.08;100.00;102399.94;4984531;28;19926;-74
2021/12/16 04:58:26;;;;;;;;;;;7.40;99.90;;;7.09;100.00;102396.47;4953520;28;19938;-76
2021/12/16 05:01:11;;;;;;;;;;;7.40;99.90;;;7.12;100.00;102394.78;4967968;28;19944;-76
2021/12/16 05:03:41;;;;;;;;;;;7.30;99.90;;;7.08;100.00;102399.94;4983369;28;19926;-77
2021/12/16 05:06:09;;;;;;;;;;;7.40;99.90;;;7.11;100.00;102406.13;4967775;28;20270;-76
2021/12/16 05:08:37;;;;;;;;;;;7.40;99.90;;;7.05;100.00;102409.47;4968385;28;19933;-76
2021/12/16 05:11:12;;;;;;;;;;;8.50;99.90;;;7.11;100.00;102399.13;4968093;28;19930;-77
2021/12/16 05:13:43;;;;;;;;;;;7.30;99.90;;;7.12;100.00;102408.75;4950941;28;19926;-74
2021/12/16 05:16:13;;;;;;;;;;;7.40;99.90;;;7.15;100.00;102413.19;4968489;28;19934;-73
2021/12/16 05:18:45;;;;;;;;;;;7.30;99.90;;;7.14;100.00;102422.75;4968759;28;19948;-73
2021/12/16 05:26:42;;;;;;;;;;;7.30;99.90;;;7.14;100.00;102424.50;4971676;28;19930;-74
2021/12/16 05:29:11;;;;;;;;;;;8.10;99.90;;;7.08;100.00;102426.09;4955805;28;19930;-74
2021/12/16 05:31:38;;;;;;;;;;;8.00;99.90;;;7.04;100.00;102433.88;4968760;28;19926;-75
2021/12/16 05:34:09;;;;;;;;;;;7.50;99.90;;;7.03;100.00;102424.25;4969836;28;19930;-75
2021/12/16 05:36:40;;;;;;;;;;;7.30;99.90;;;7.04;100.00;102429.50;4971355;28;19926;-74
2021/12/16 05:39:08;;;;;;;;;;;7.30;99.90;;;7.06;100.00;102432.19;4965036;28;19934;-74
2021/12/16 05:41:44;;;;;;;;;;;7.30;99.90;;;7.12;100.00;102440.16;4960209;28;20442;-74
2021/12/16 05:44:12;;;;;;;;;;;7.30;99.90;;;7.13;100.00;102439.31;4969613;28;19981;-74
2021/12/16 05:46:40;;;;;;;;;;;7.30;99.90;;;7.07;100.00;102439.19;4955312;28;19937;-74
2021/12/16 05:49:09;;;;;;;;;;;8.20;99.90;;;7.04;100.00;102428.63;4967370;28;19930;-75
2021/12/16 05:51:47;;;;;;;;;;;8.30;99.90;;;7.05;100.00;102440.88;4963478;28;19926;-74
2021/12/16 05:54:16;;;;;;;;;;;7.30;99.90;;;7.05;100.00;102439.13;4977098;28;19958;-74
2021/12/16 05:57:06;;;;;;;;;;;7.80;99.90;;;7.07;100.00;102449.66;4964174;28;19941;-74
2021/12/16 05:59:35;;;;;;;;;;;7.30;99.90;;;7.29;100.00;102444.91;4974764;28;19926;-74
2021/12/16 06:02:02;;;;;;;;;;;7.30;99.90;;;7.37;100.00;102452.09;4983345;28;19936;-76
2021/12/16 06:04:34;;;;;;;;;;;7.30;99.90;;;7.45;100.00;102440.91;4969654;28;19927;-74
2021/12/16 06:07:09;;;;;;;;;;;7.30;99.90;;;7.35;100.00;102445.94;4954097;28;19933;-74
2021/12/16 06:09:36;;;;;;;;;;;7.40;99.90;;;7.28;100.00;102444.03;4953866;28;19930;-74
2021/12/16 06:12:03;;;;;;;;;;;7.40;99.90;;;7.34;100.00;102453.78;4971726;28;19930;-75
2021/12/16 06:27:57;;;;;;;;;;;8.50;99.90;;;7.30;100.00;102455.44;4971638;28;19936;-74
2021/12/16 06:30:28;;;;;;;;;;;7.60;99.90;;;7.26;100.00;102445.75;4962148;28;19984;-74
2021/12/16 06:32:55;;;;;;;;;;;7.30;99.90;;;7.28;100.00;102462.38;4966111;28;19932;-74
2021/12/16 06:35:23;;;;;;;;;;;7.30;99.90;;;7.30;100.00;102452.81;4934184;29;19934;-74
2021/12/16 06:37:51;;;;;;;;;;;7.30;99.90;;;7.28;100.00;102446.66;4951142;29;19937;-75
2021/12/16 06:40:25;;;;;;;;;;;7.50;99.90;;;7.21;100.00;102442.09;4967903;28;19937;-73
2021/12/16 06:43:14;;;;;;;;;;;7.30;99.90;;;7.19;100.00;102443.81;4921612;28;20009;-74
2021/12/16 06:45:46;;;;;;;;;;;7.30;99.90;;;7.20;100.00;102449.09;4934009;29;20026;-74
2021/12/16 06:48:18;;;;;;;;;;;7.30;99.90;;;7.21;100.00;102445.63;4950641;29;19942;-74
2021/12/16 06:53:20;;;;;;;;;;;7.30;99.90;;;7.24;100.00;102448.31;4970774;28;19937;-74
2021/12/16 06:56:00;;;;;;;;;;;7.30;99.90;;;7.27;100.00;102438.75;4969789;28;19930;-75
2021/12/16 06:58:40;;;;;;;;;;;7.90;99.90;;;7.23;100.00;102446.53;4969457;28;19936;-74
2021/12/16 07:01:15;;;;;;;;;;;7.30;99.90;;;7.18;100.00;102452.50;4970459;28;20020;-74
2021/12/16 07:03:47;;;;;;;;;;;7.30;99.90;;;7.19;100.00;102454.28;4965022;28;20021;-75
2021/12/16 07:06:22;;;;;;;;;;;7.30;99.90;;;7.19;100.00;102460.41;4950352;29;19927;-74
2021/12/16 07:08:54;;;;;;;;;;;7.30;99.90;;;7.25;100.00;102470.13;4954057;28;20466;-74
2021/12/16 07:11:23;;;;;;;;;;;8.80;99.90;;;7.12;100.00;102466.34;4965793;28;19986;-73
2021/12/16 07:13:58;;;;;;;;;;;7.50;99.90;;;7.30;100.00;102467.63;4967204;28;20341;-73
2021/12/16 07:16:28;;;;;;;;;;;7.30;99.90;;;7.32;100.00;102468.53;4970792;28;19930;-74
2021/12/16 07:18:56;;;;;;;;;;;7.80;99.90;;;7.25;100.00;102464.88;4969068;28;19926;-74
2021/12/16 07:21:23;;;;;;;;;;;7.20;99.90;;;7.23;100.00;102466.59;4965573;28;20017;-75
2021/12/16 07:23:51;;;;;;;;;;;8.20;99.90;;;7.22;100.00;102470.97;4972877;28;19941;-74
2021/12/16 07:26:18;;;;;;;;;;;7.30;99.90;;;7.26;100.00;102477.16;4962148;28;20441;-74
2021/12/16 07:28:45;;;;;;;;;;;7.30;99.90;;;7.24;100.00;102486.69;4959052;28;19937;-74
2021/12/16 07:31:13;;;;;;;;;;;7.30;99.90;;;7.24;100.00;102489.31;4975608;28;19969;-74
2021/12/16 07:33:39;;;;;;;;;;;9.10;99.90;;;7.23;100.00;102504.16;4964939;28;19941;-73
2021/12/16 07:36:06;;;;;;;;;;;7.20;99.90;;;7.23;100.00;102511.09;4969560;28;19930;-73
2021/12/16 07:38:37;;;;;;;;;;;7.20;99.90;;;7.18;100.00;102505.78;4970603;28;19930;-74
2021/12/16 07:41:04;;;;;;;;;;;7.20;99.90;;;7.23;100.00;102514.63;4952489;28;20178;-73
2021/12/16 07:46:41;;;;;;;;;;;7.20;99.90;;;7.33;100.00;102528.81;4927545;29;19931;-73
2021/12/16 07:49:11;;;;;;;;;;;7.20;99.90;;;7.37;100.00;102520.19;4931349;29;19962;-74
2021/12/16 07:51:39;;;;;;;;;;;7.30;99.90;;;7.37;100.00;102516.69;4928822;29;19933;-74
2021/12/16 07:54:07;;;;;;;;;;;7.30;99.90;;;7.36;100.00;102525.41;4928903;29;19953;-74
2021/12/16 07:56:34;;;;;;;;;;;7.30;99.90;;;7.38;100.00;102535.03;4929103;29;19931;-77
2021/12/16 07:59:05;;;;;;;;;;;7.50;99.90;;;7.43;100.00;102529.91;4913766;29;19934;-77
2021/12/16 08:01:32;;;;;;;;;;;8.00;99.90;;;7.42;100.00;102533.38;4930043;29;19930;-77
2021/12/16 08:03:59;;;;;;;;;;;7.40;99.90;;;7.46;100.00;102534.34;4912650;29;20323;-78
2021/12/16 08:06:28;;;;;;;;;;;8.50;99.90;;;7.46;100.00;102539.59;4924145;29;20090;-76
2021/12/16 08:09:00;;;;;;;;;;;7.40;99.90;;;7.46;100.00;102543.09;4929117;29;19931;-77
2021/12/16 08:11:30;;;;;;;;;;;7.40;99.90;;;7.44;100.00;102543.91;4929709;29;19931;-77
2021/12/16 08:14:02;;;;;;;;;;;7.40;99.90;;;7.43;100.00;102555.25;4928986;29;20402;-76
2021/12/16 08:16:31;;;;;;;;;;;7.40;99.90;;;7.41;100.00;102547.34;4933793;28;19938;-77
2021/12/16 08:18:58;;;;;;;;;;;7.40;99.90;;;7.43;100.00;102550.88;4968774;28;20016;-77
2021/12/16 08:21:29;;;;;;;;;;;9.30;99.90;;;7.44;100.00;102560.50;4969321;28;19930;-78
2021/12/16 08:24:03;;;;;;;;;;;7.50;99.90;;;7.48;100.00;102564.09;4953110;28;19999;-77
2021/12/16 08:26:34;;;;;;;;;;;7.80;99.90;;;7.54;100.00;102563.34;4978850;28;19998;-77
2021/12/16 08:29:03;;;;;;;;;;;8.00;99.90;;;7.57;100.00;102555.56;4969840;28;19930;-77
2021/12/16 08:31:30;;;;;;;;;;;7.50;99.90;;;7.59;100.00;102567.88;4951006;29;20331;-78
2021/12/16 08:33:58;;;;;;;;;;;7.50;99.90;;;7.65;100.00;102559.25;4966603;28;19933;-76
2021/12/16 08:36:26;;;;;;;;;;;7.50;99.90;;;7.67;100.00;102560.19;4950696;29;19930;-76
2021/12/16 08:38:53;;;;;;;;;;;7.60;99.90;;;7.75;100.00;102569.09;4967370;28;19977;-76
2021/12/16 08:41:29;;;;;;;;;;;7.50;99.90;;;7.72;100.00;102571.66;4949808;29;19985;-77
2021/12/16 08:43:57;;;;;;;;;;;7.60;99.90;;;7.68;100.00;102571.53;4933843;29;19927;-78
2021/12/16 08:46:27;;;;;;;;;;;8.00;99.90;;;7.71;100.00;102575.13;4965833;28;20384;-77
2021/12/16 08:48:54;;;;;;;;;;;7.60;99.90;;;7.78;100.00;102581.38;4951755;29;19978;-79
2021/12/16 08:51:39;;;;;;;;;;;8.50;99.90;;;7.77;100.00;102583.09;4949805;29;19981;-77
2021/12/16 08:54:07;;;;;;;;;;;7.60;99.90;;;7.61;100.00;102570.50;4949534;28;20399;-77
2021/12/16 08:56:34;;;;;;;;;;;7.60;99.90;;;7.52;100.00;102577.31;4952695;29;19927;-78
2021/12/16 08:59:24;;;;;;;;;;;7.70;99.90;;;7.53;100.00;102578.19;4976327;28;19925;-77
2021/12/16 09:01:53;;;;;;;;;;;7.70;99.90;;;7.59;100.00;102586.19;4972437;28;19934;-76
2021/12/16 09:04:23;;;;;;;;;;;7.70;99.90;;;7.82;100.00;102579.72;4972636;28;19934;-77
2021/12/16 09:06:52;;;;;;;;;;;9.40;99.90;;;7.86;100.00;102584.19;4957231;28;19976;-77
2021/12/16 09:09:20;;;;;;;;;;;7.80;99.90;;;7.89;100.00;102582.53;4973268;28;19977;-76
2021/12/16 09:14:46;;;;;;;;;;;7.80;99.90;;;7.95;100.00;102584.38;4940927;28;19930;-77
2021/12/16 09:17:15;;;;;;;;;;;7.80;99.90;;;7.94;100.00;102582.59;4972457;28;20017;-79
2021/12/16 09:19:49;;;;;;;;;;;7.80;99.90;;;7.97;100.00;102592.28;4972520;28;20041;-76
2021/12/16 09:22:17;;;;;;;;;;;7.90;99.90;;;8.00;100.00;102597.59;4956121;28;19984;-76
2021/12/16 09:24:46;;;;;;;;;;;7.90;99.90;;;8.04;100.00;102602.94;4955701;28;20068;-77
2021/12/16 09:27:14;;;;;;;;;;;7.90;99.90;;;8.04;100.00;102602.03;4971972;28;19941;-77
2021/12/16 09:29:42;;;;;;;;;;;8.00;99.90;;;8.04;100.00;102608.19;4971563;28;20605;-77
2021/12/16 09:32:10;;;;;;;;;;;8.10;99.90;;;8.15;100.00;102618.91;4972450;28;19927;-78
2021/12/16 09:34:39;;;;;;;;;;;8.00;99.90;;;8.12;100.00;102623.19;4973623;28;20396;-77
2021/12/16 09:37:06;;;;;;;;;;;8.60;99.90;;;8.16;100.00;102625.94;4972266;28;19929;-77
2021/12/16 09:39:34;;;;;;;;;;;8.80;99.90;;;8.20;100.00;102625.16;4971716;28;19938;-77
2021/12/16 09:42:01;;;;;;;;;;;8.10;99.90;;;8.25;100.00;102622.63;4972794;28;20032;-77
2021/12/16 09:44:29;;;;;;;;;;;8.20;99.90;;;8.24;100.00;102631.34;4971133;28;19937;-77
2021/12/16 09:46:58;;;;;;;;;;;8.20;99.90;;;8.31;100.00;102624.50;4971995;28;19930;-76
2021/12/16 09:49:26;;;;;;;;;;;8.20;99.90;;;8.32;100.00;102621.91;4972277;28;20012;-77
2021/12/16 09:51:55;;;;;;;;;;;8.50;99.90;;;8.27;100.00;102626.16;4971536;28;20411;-77
2021/12/16 09:54:26;;;;;;;;;;;10.20;99.90;;;8.30;100.00;102620.09;4987667;28;19934;-77
2021/12/16 09:56:55;;;;;;;;;;;9.40;99.90;;;8.32;100.00;102624.53;4987374;28;19930;-77
2021/12/16 09:59:24;;;;;;;;;;;8.70;99.90;;;8.33;100.00;102618.44;4987647;28;19977;-77
2021/12/16 10:01:53;;;;;;;;;;;8.70;99.90;;;8.32;100.00;102611.44;4987407;28;19941;-76
2021/12/16 10:04:25;;;;;;;;;;;8.30;99.90;;;8.43;100.00;102609.03;4987257;28;19930;-77
2021/12/16 10:06:57;;;;;;;;;;;8.40;99.90;;;8.43;100.00;102609.03;4986413;28;20299;-76
2021/12/16 10:09:26;;;;;;;;;;;8.40;99.90;;;8.45;100.00;102602.06;4987309;28;19981;-77
2021/12/16 10:11:56;;;;;;;;;;;9.40;99.90;;;8.51;100.00;102612.75;4986938;28;19976;-77
2021/12/16 10:14:47;;;;;;;;;;;8.50;99.90;;;8.46;100.00;102609.09;4963261;28;19949;-76
2021/12/16 10:17:23;;;;;;;;;;;8.50;99.90;;;8.48;100.00;102615.25;4954754;28;20363;-76
2021/12/16 10:19:56;;;;;;;;;;;8.50;99.90;;;8.47;100.00;102616.09;4972369;28;19934;-77
2021/12/16 10:22:26;;;;;;;;;;;10.10;99.90;;;8.51;100.00;102619.72;4986924;28;19926;-76
2021/12/16 10:24:57;;;;;;;;;;;10.30;99.90;;;8.51;100.00;102617.09;4971029;28;19926;-75
2021/12/16 10:27:27;;;;;;;;;;;8.50;99.90;;;8.50;100.00;102617.94;4970412;28;19933;-73
2021/12/16 10:29:55;;;;;;;;;;;8.50;99.90;;;8.54;100.00;102611.03;4970072;28;20450;-73
2021/12/16 10:32:43;;;;;;;;;;;8.50;99.90;;;8.60;100.00;102617.28;4967087;28;19925;-73
2021/12/16 10:35:28;;;;;;;;;;;8.60;99.90;;;8.67;100.00;102613.06;4972709;28;19968;-74
2021/12/16 10:38:00;;;;;;;;;;;8.60;99.90;;;8.70;100.00;102613.09;4972551;28;19989;-73
2021/12/16 10:40:43;;;;;;;;;;;8.70;99.90;;;8.82;100.00;102611.56;4971142;28;19980;-74
2021/12/16 10:43:35;;;;;;;;;;;8.60;99.90;;;8.74;100.00;102609.69;4972172;28;19953;-74
2021/12/16 10:46:11;;;;;;;;;;;8.70;99.90;;;8.79;100.00;102615.91;4971028;28;20143;-74
2021/12/16 10:48:44;;;;;;;;;;;8.80;99.90;;;8.84;100.00;102602.88;4971527;28;19930;-74
2021/12/16 10:51:18;;;;;;;;;;;8.80;99.90;;;8.86;100.00;102601.16;4965109;28;20311;-73
2021/12/16 10:54:01;;;;;;;;;;;8.80;99.90;;;8.99;100.00;102606.63;4951239;29;19977;-73
2021/12/16 10:56:32;;;;;;;;;;;8.80;99.90;;;9.00;100.00;102597.91;4952941;28;20714;-73
2021/12/16 10:59:33;;;;;;;;;;;8.90;99.90;;;8.89;100.00;102603.81;4954116;29;19933;-73
2021/12/16 11:02:08;;;;;;;;;;;8.90;99.90;;;8.95;100.00;102608.31;4950713;29;19935;-73
2021/12/16 11:05:06;;;;;;;;;;;8.90;99.90;;;9.06;100.00;102608.53;4974965;28;19965;-73
2021/12/16 11:07:47;;;;;;;;;;;8.90;99.90;;;9.13;100.00;102615.66;4969994;28;20004;-73
2021/12/16 11:10:29;;;;;;;;;;;9.00;99.90;;;9.10;100.00;102612.97;4986331;28;19926;-74
2021/12/16 11:13:10;;;;;;;;;;;9.10;99.90;;;9.15;100.00;102618.31;4969847;28;19976;-73
2021/12/16 11:15:50;;;;;;;;;;;9.10;99.90;;;9.23;100.00;102611.44;4970763;28;19937;-74
2021/12/16 11:18:22;;;;;;;;;;;9.10;99.90;;;9.30;100.00;102608.09;4953180;28;20057;-73
2021/12/16 11:20:59;;;;;;;;;;;9.20;99.90;;;9.39;100.00;102590.69;4971038;28;19926;-73
2021/12/16 11:23:40;;;;;;;;;;;9.20;99.90;;;9.37;100.00;102609.06;4969802;28;19936;-73
2021/12/16 11:26:12;;;;;;;;;;;9.20;99.90;;;9.45;100.00;102607.44;4953374;28;19930;-73
2021/12/16 11:28:52;;;;;;;;;;;9.30;99.90;;;9.46;100.00;102597.84;4970668;28;19926;-75
2021/12/16 11:31:29;;;;;;;;;;;9.50;99.90;;;9.49;100.00;102597.88;4969631;28;19955;-74
2021/12/16 11:34:07;;;;;;;;;;;9.40;99.90;;;9.40;100.00;102595.09;4969545;28;20315;-74
2021/12/16 11:36:46;;;;;;;;;;;9.50;99.90;;;9.50;100.00;102581.25;4971915;28;20307;-74
2021/12/16 11:39:20;;;;;;;;;;;9.40;99.90;;;9.67;100.00;102583.25;4970755;28;20514;-75
2021/12/16 11:41:52;;;;;;;;;;;9.90;99.90;;;9.60;100.00;102590.16;4970237;28;19930;-73
2021/12/16 11:44:33;;;;;;;;;;;9.50;99.90;;;9.67;100.00;102588.50;4970550;28;19930;-73
2021/12/16 11:47:09;;;;;;;;;;;9.60;99.90;;;9.82;100.00;102579.97;4953685;28;19938;-73
2021/12/16 11:49:59;;;;;;;;;;;9.60;99.90;;;9.85;100.00;102578.25;4970310;28;19918;-74
2021/12/16 11:52:35;;;;;;;;;;;9.70;99.90;;;9.88;100.00;102583.56;4969531;28;19942;-74
2021/12/16 11:55:10;;;;;;;;;;;10.20;99.90;;;9.88;100.00;102591.44;4969409;28;19936;-73
2021/12/16 11:57:51;;;;;;;;;;;9.90;99.90;;;9.99;100.00;102580.22;4971514;28;19930;-74
2021/12/16 12:00:25;;;;;;;;;;;9.90;99.90;;;10.02;100.00;102578.53;4982014;28;19993;-74
2021/12/16 12:03:11;;;;;;;;;;;9.90;99.90;;;10.11;100.00;102582.13;4985304;28;20607;-74
2021/12/16 12:05:49;;;;;;;;;;;9.90;99.90;;;10.17;100.00;102580.44;4983786;28;19926;-75
2021/12/16 12:08:23;;;;;;;;;;;10.00;99.90;;;10.22;100.00;102583.16;4984305;28;20037;-74
2021/12/16 12:10:59;;;;;;;;;;;10.20;99.90;;;10.16;100.00;102583.09;4969886;28;19930;-75
2021/12/16 12:13:33;;;;;;;;;;;10.10;99.90;;;10.13;100.00;102581.28;4983879;28;19930;-73
2021/12/16 12:16:03;;;;;;;;;;;10.10;99.90;;;10.14;100.00;102577.78;4970239;28;19934;-74
2021/12/16 12:18:31;;;;;;;;;;;10.20;99.90;;;10.17;100.00;102584.84;4984796;28;19949;-74
2021/12/16 12:21:50;;;;;;;;;;;10.20;99.90;;;10.25;100.00;102587.59;4968950;28;19934;-74
2021/12/16 12:24:25;;;;;;;;;;;10.20;99.90;;;10.31;100.00;102587.66;4952049;28;19930;-74
2021/12/16 12:27:04;;;;;;;;;;;10.20;99.90;;;10.35;100.00;102584.19;4968770;28;20044;-74
2021/12/16 12:29:34;;;;;;;;;;;10.40;99.90;;;10.41;100.00;102580.78;4971329;28;19937;-74
2021/12/16 12:32:11;;;;;;;;;;;10.30;99.90;;;10.45;100.00;102572.94;4973212;28;19941;-74
2021/12/16 12:34:44;;;;;;;;;;;10.30;99.90;;;10.43;100.00;102572.06;4972778;28;20017;-74
2021/12/16 12:37:16;;;;;;;;;;;10.40;99.90;;;10.56;100.00;102566.94;4986277;28;19934;-73
2021/12/16 12:39:47;;;;;;;;;;;10.40;99.90;;;10.53;100.00;102572.13;4972271;28;19976;-74
2021/12/16 12:42:15;;;;;;;;;;;10.50;99.90;;;10.55;100.00;102567.81;4971561;28;20503;-73
2021/12/16 12:44:43;;;;;;;;;;;10.50;99.90;;;10.58;100.00;102567.84;4971488;28;19930;-73
2021/12/16 12:47:14;;;;;;;;;;;10.50;99.90;;;10.77;100.00;102564.53;4972158;28;20323;-74
2021/12/16 12:49:42;;;;;;;;;;;10.60;99.90;;;10.87;100.00;102572.53;4971585;28;19934;-74
2021/12/16 12:52:18;;;;;;;;;;;12.40;99.90;;;11.05;100.00;102562.16;4973122;28;19926;-74
2021/12/16 12:54:57;;;;;;;;;;;10.90;99.90;;;10.88;100.00;102569.03;4971390;28;19926;-73
2021/12/16 12:57:30;;;;;;;;;;;10.90;99.80;;;11.11;100.00;102568.34;4988208;28;20112;-73
2021/12/16 12:59:58;;;;;;;;;;;11.00;99.90;;;11.05;100.00;102569.16;4975143;28;19931;-73
2021/12/16 13:02:29;;;;;;;;;;;11.00;99.70;;;11.12;100.00;102565.75;4936171;29;19932;-74
2021/12/16 13:05:04;;;;;;;;;;;11.10;99.70;;;11.16;100.00;102556.97;4951394;29;19930;-74
2021/12/16 13:07:44;;;;;;;;;;;11.10;99.30;;;11.29;100.00;102557.09;4957174;28;19997;-74
2021/12/16 13:10:37;;;;;;;;;;;11.20;99.40;;;11.43;100.00;102554.56;4972368;28;19934;-74
2021/12/16 13:27:43;;;;;;;;;;;12.30;98.30;;;12.14;100.00;102555.03;4971821;28;19936;-76
2021/12/16 13:30:26;;;;;;;;;;;12.30;97.70;;;12.13;100.00;102555.00;4971512;28;19926;-76
2021/12/16 13:33:26;;;;;;;;;;;12.30;97.80;;;12.58;100.00;102549.91;4971470;28;19932;-76
2021/12/16 13:36:06;;;;;;;;;;;12.50;97.90;;;12.71;100.00;102545.50;4971125;28;19926;-78
2021/12/16 13:38:43;;;;;;;;;;;12.80;97.30;;;12.83;100.00;102540.25;4971427;28;19934;-76
2021/12/16 13:41:23;;;;;;;;;;;12.90;97.40;;;12.95;100.00;102541.13;4970804;28;19926;-76
2021/12/16 13:43:58;;;;;;;;;;;13.20;96.80;;;13.18;100.00;102538.50;4986805;28;19934;-76
2021/12/16 13:46:33;;;;;;;;;;;13.40;96.90;;;13.25;99.87;102534.09;4978980;28;20398;-76
2021/12/16 14:06:26;;;;;;;;;;;13.10;96.60;;;12.40;100.00;102546.31;4970533;28;19948;-76
2021/12/16 14:09:18;;;;;;;;;;;12.80;96.80;;;12.43;100.00;102562.19;4966227;28;19922;-75
2021/12/16 14:12:55;;;;;;;;;;;12.60;97.30;;;12.20;100.00;102557.69;4970693;28;19930;-76
2021/12/16 14:23:33;;;;;;;;;;;11.90;97.50;;;11.55;100.00;102559.91;4971539;28;20379;-75
2021/12/16 14:26:38;;;;;;;;;;;11.80;97.90;;;11.50;100.00;102564.28;4967858;28;19992;-75
2021/12/16 14:43:02;;;;;;;;;;;11.10;98.90;;;11.09;100.00;102559.56;4951911;29;19930;-74
2021/12/16 14:45:44;;;;;;;;;;;11.00;99.10;;;11.03;100.00;102557.75;4963043;28;19926;-75
2021/12/16 14:48:25;;;;;;;;;;;11.00;99.20;;;10.98;100.00;102562.97;4964764;28;19937;-75
2021/12/16 14:50:55;;;;;;;;;;;10.90;99.30;;;10.98;100.00;102567.38;4955084;28;20317;-75
2021/12/16 14:53:43;;;;;;;;;;;10.20;99.20;;;10.95;100.00;102572.59;4951704;28;19930;-75
2021/12/16 14:56:37;;;;;;;;;;;10.80;99.40;;;10.92;100.00;102582.22;4936424;29;19927;-77
2021/12/16 14:59:07;;;;;;;;;;;10.80;99.40;;;10.92;100.00;102582.22;4966938;28;19953;-77
2021/12/16 15:01:37;;;;;;;;;;;10.80;99.70;;;10.91;100.00;102576.94;4969127;28;19962;-77
2021/12/16 15:04:25;;;;;;;;;;;10.70;99.70;;;10.88;100.00;102575.16;4970396;28;19927;-77
2021/12/16 15:07:03;;;;;;;;;;;10.70;99.70;;;10.87;100.00;102580.44;4978496;28;19930;-75
2021/12/16 15:09:33;;;;;;;;;;;10.70;99.70;;;10.84;100.00;102588.28;4974012;28;19926;-76
2021/12/16 15:12:18;;;;;;;;;;;10.70;99.70;;;10.75;100.00;102582.06;4972721;28;20355;-76
2021/12/16 15:15:26;;;;;;;;;;;10.70;99.70;;;10.71;100.00;102592.53;4970891;28;19938;-75
2021/12/16 15:37:33;;;;;;;;;;;10.30;99.90;;;10.40;100.00;102597.41;4974254;28;19980;-75
2021/12/16 15:42:53;;;;;;;;;;;10.30;99.90;;;10.30;100.00;102610.47;4973308;28;19930;-76